Pagina principale
METAR-TAF:

METAR-TAF

Aeroporti :

Aeroporto di Poitiers Biard

Poitiers, Francia

latitudine: 46-35N, longitudine: 000-19E, altezza: 129 m

Osservazione

Il bollettino è stato emesso 44 minuti fa, alle 06:00 UTC
Vento 5 kt da nord/nord-est
Temperature 22°C
Umidità 83%
Pressione 1018 hPa
Visibilità 10 km o più
nessuna nube inferiore a 1500 m e nessun cumulonembo

METAR: LFBI 260600Z AUTO 02005KT CAVOK 22/19 Q1018 NOSIG

Ora: 08:44 (06:44 UTC)

Previsione

Il bollettino è stato emesso 1 ora e 44 minuti fa, alle 05:00 UTC
Previsione valida dal 26 alle 06 UTC al 27 alle 06 UTC
Vento 5 kt da nord
Visibilità 10 km o più
nessuna nube inferiore a 1500 m e nessun cumulonembo
Evoluzione graduale
dal 26 alle 08 UTC al 26 alle 10 UTC
Vento 5 kt da est

TAF: LFBI 260500Z 2606/2706 01005KT CAVOK BECMG 2608/2610 09005KT

Osservazioni e previsioni meteorologiche di più di 4000 aeroporti (messaggi METAR e TAF).

Le stazioni disponibili sono rappresentate dai dischi gialli e rossi sulla carta.

Puntare il mouse per vedere il nome della stazione.

Clicca sopra per visualizzare le osservazioni e previsioni meteorologiche.

Per cambiare la mappa : fare clic sui pulsanti verdi con una croce nera per ingrandire, il pulsante verde con un trattino per diminuire, o sulla freccia verde per le mappe adiacenti.


METAR-TAF: